JCY weather

LBJ Ranch Airport
Johnson City, Texas, United States

Public forecast

Using degrees Fahrenheit for public forecast. Weather courtesy of forecast.io.

Closest aviation weather report (METAR) to LBJ Ranch Airport

Closest report is Gillespie County Airport, 14.9 nm (27.6 km) W. Retrieved 2019/10/15 02:35 UTC (0 seconds ago):

KT82 150235Z AUTO 00000KT 10SM CLR 24/18 A2997 RMK AO2 T02410176

Closest aviation forecast (TAF) to LBJ Ranch Airport

Forecast is more than 6 hours old.

Closest forecast is San Antonio International Airport, 43.8 nm (81.2 km) S. Retrieved 2019/10/14 18:22 UTC (8 hours ago):

TAF KSAT 141720Z 1418/1524 VRB04KT P6SM SCT018 OVC100 FM141900 16006KT P6SM SCT030 BKN100 FM150700 16005KT P6SM BKN015 FM151700 19010KT P6SM BKN050